Accueil
METAR-TAF:

METAR-TAF

Aéroports :

Norwood Memorial Airport

Norwood, Massachusetts, États-Unis

latitude: 42-11-27N, longitude: 071-10-26W, altitude: 15 m

Observation

Le bulletin a été fait il y a 39 minutes, à 18:53 UTC
Vent calme
Température 22°C
Humidité 57%
Pression 1011 hPa
Visibilité: 16.1 km
Quelques nuages à une hauteur de 3900 ft

METAR: KOWD 121853Z 00000KT 10SM FEW039 22/13 A2985 RMK AO2 SLP106 T02170133

Heure: 15:32 (19:32 UTC)


TAF: absent

Observations et prévisions météorologiques de plus de 4000 aéroports (messages METAR et TAF).

Les stations disponibles sont représentées par des disques jaunes et rouges sur la carte.

Passer la souris dessus pour voir le nom de la station.

Cliquer dessus pour voir les observations et prévisions météorologiques.

Pour changer de carte: cliquez sur les boutons verts avec une croix noire pour zoomer, sur le bouton vert avec un tiret pour effectuer un zoom arrière, ou sur les flèches vertes pour les cartes adjacentes.


METAR-TAF: